createdAt,value
2022-09-02T00:01:48.116Z,99466.69
2022-09-02T00:04:22.542Z,99456.31
2022-09-02T00:06:54.128Z,99450.25
2022-09-02T00:09:27.451Z,99453.91
2022-09-02T00:11:58.293Z,99441.13
2022-09-02T00:14:33.660Z,99443.41
2022-09-02T00:17:02.744Z,99439.41
2022-09-02T00:19:32.900Z,99440.00
2022-09-02T00:22:03.436Z,99440.38
2022-09-02T00:24:33.168Z,99433.84
2022-09-02T00:27:02.097Z,99435.84
2022-09-02T00:29:32.326Z,99440.06
2022-09-02T00:32:01.214Z,99437.59
2022-09-02T00:34:30.163Z,99436.28
2022-09-02T00:36:59.149Z,99443.00
2022-09-02T00:39:27.979Z,99441.31
2022-09-02T00:41:57.058Z,99432.91
2022-09-02T00:44:26.136Z,99434.59
2022-09-02T00:46:56.601Z,99426.63
2022-09-02T00:49:29.200Z,99428.69
2022-09-02T00:52:06.001Z,99431.25
2022-09-02T00:54:41.792Z,99431.50
2022-09-02T00:57:19.520Z,99434.34
2022-09-02T00:59:58.713Z,99430.13
2022-09-02T01:02:31.726Z,99432.94
2022-09-02T01:05:04.130Z,99434.44
2022-09-02T01:07:36.906Z,99435.84
2022-09-02T01:10:10.114Z,99433.31
2022-09-02T01:12:39.876Z,99438.69
2022-09-02T01:15:12.052Z,99438.81
2022-09-02T01:17:48.542Z,99427.72
2022-09-02T01:20:25.620Z,99429.13
2022-09-02T01:22:58.270Z,99426.44
2022-09-02T01:25:31.814Z,99422.59
2022-09-02T01:28:02.990Z,99423.53
2022-09-02T01:30:33.055Z,99425.06
2022-09-02T01:33:02.009Z,99424.72
2022-09-02T01:35:31.996Z,99421.91
2022-09-02T01:38:03.223Z,99426.47
2022-09-02T01:40:34.059Z,99422.25
2022-09-02T01:43:08.826Z,99424.47
2022-09-02T01:45:40.300Z,99421.69
2022-09-02T01:48:10.762Z,99422.50
2022-09-02T01:50:46.759Z,99423.44
2022-09-02T01:53:17.944Z,99424.38
2022-09-02T01:55:46.926Z,99418.66
2022-09-02T01:58:16.160Z,99411.63
2022-09-02T02:00:45.532Z,99417.00
2022-09-02T02:03:15.312Z,99412.94
2022-09-02T02:05:45.037Z,99412.94
2022-09-02T02:08:19.396Z,99407.44
2022-09-02T02:10:50.154Z,99409.44
2022-09-02T02:13:19.689Z,99409.78
2022-09-02T02:15:48.674Z,99411.88
2022-09-02T02:18:17.503Z,99422.16
2022-09-02T02:20:46.516Z,99418.06
2022-09-02T02:23:15.443Z,99415.03
2022-09-02T02:25:45.699Z,99416.28
2022-09-02T02:28:14.872Z,99406.00
2022-09-02T02:30:44.510Z,99418.84
2022-09-02T02:33:14.243Z,99406.47
2022-09-02T02:35:43.940Z,99411.38
2022-09-02T02:38:14.303Z,99411.41
2022-09-02T02:40:45.904Z,99410.25
2022-09-02T02:43:14.888Z,99409.13
2022-09-02T02:45:43.812Z,99413.13
2022-09-02T02:48:13.549Z,99410.06
2022-09-02T02:50:44.015Z,99407.25
2022-09-02T02:53:13.286Z,99405.41
2022-09-02T02:55:44.912Z,99397.56
2022-09-02T02:58:19.576Z,99409.84
2022-09-02T03:00:50.306Z,99402.16
2022-09-02T03:03:22.599Z,99398.28
2022-09-02T03:05:55.544Z,99402.38
2022-09-02T03:08:25.916Z,99400.25
2022-09-02T03:10:58.167Z,99404.94
2022-09-02T03:13:31.981Z,99401.78
2022-09-02T03:16:05.162Z,99405.72
2022-09-02T03:18:36.222Z,99402.59
2022-09-02T03:21:10.366Z,99397.94
2022-09-02T03:23:39.611Z,99403.72
2022-09-02T03:26:20.410Z,99398.72
2022-09-02T03:28:56.013Z,99398.56
2022-09-02T03:31:28.649Z,99399.63
2022-09-02T03:33:59.688Z,99400.09
2022-09-02T03:36:34.807Z,99401.03
2022-09-02T03:39:05.323Z,99401.13
2022-09-02T03:41:46.441Z,99401.94
2022-09-02T03:44:18.305Z,99395.38
2022-09-02T03:46:47.682Z,99394.72
2022-09-02T03:49:16.649Z,99398.06
2022-09-02T03:51:45.967Z,99396.44
2022-09-02T03:54:14.962Z,99398.50
2022-09-02T03:56:45.411Z,99388.13
2022-09-02T03:59:16.286Z,99396.84
2022-09-02T04:01:45.366Z,99396.16
2022-09-02T04:04:14.656Z,99390.22
2022-09-02T04:06:43.653Z,99402.09
2022-09-02T04:09:14.120Z,99391.47
2022-09-02T04:11:44.760Z,99395.44
2022-09-02T04:14:14.698Z,99392.75
2022-09-02T04:16:46.270Z,99397.31
2022-09-02T04:19:18.088Z,99393.66
2022-09-02T04:21:47.356Z,99398.56
2022-09-02T04:24:16.466Z,99397.97
2022-09-02T04:26:50.362Z,99396.34
2022-09-02T04:29:20.095Z,99396.50
2022-09-02T04:31:51.854Z,99400.22
2022-09-02T04:34:21.498Z,99397.31
2022-09-02T04:36:53.213Z,99398.78
2022-09-02T04:39:24.102Z,99398.78
2022-09-02T04:41:55.703Z,99399.69
2022-09-02T04:44:26.890Z,99391.91
2022-09-02T04:46:55.730Z,99399.94
2022-09-02T04:49:25.057Z,99395.75
2022-09-02T04:51:55.800Z,99391.13
2022-09-02T04:54:27.556Z,99391.13
2022-09-02T04:57:02.158Z,99399.38
2022-09-02T04:59:32.468Z,99393.66
2022-09-02T05:02:08.647Z,99395.28
2022-09-02T05:04:37.845Z,99392.03
2022-09-02T05:07:12.056Z,99392.63
2022-09-02T05:09:46.230Z,99391.22
2022-09-02T05:12:16.948Z,99396.59
2022-09-02T05:14:51.653Z,99396.19
2022-09-02T05:17:23.252Z,99399.47
2022-09-02T05:19:55.032Z,99393.66
2022-09-02T05:22:23.843Z,99399.25
2022-09-02T05:24:52.845Z,99395.19
2022-09-02T05:27:24.130Z,99397.44
2022-09-02T05:29:57.093Z,99392.91
2022-09-02T05:32:27.175Z,99393.03
2022-09-02T05:34:56.443Z,99395.81
2022-09-02T05:37:26.430Z,99385.47
2022-09-02T05:39:55.611Z,99387.63
2022-09-02T05:42:26.156Z,99384.13
2022-09-02T05:44:54.905Z,99382.34
2022-09-02T05:47:25.921Z,99378.19
2022-09-02T05:49:56.730Z,99379.69
2022-09-02T05:52:27.441Z,99377.38
2022-09-02T05:54:57.930Z,99378.78
2022-09-02T05:57:28.590Z,99375.88
2022-09-02T06:00:08.662Z,99380.91
2022-09-02T06:02:44.785Z,99379.84
2022-09-02T06:05:20.847Z,99377.28
2022-09-02T06:07:57.615Z,99368.88
2022-09-02T06:10:26.945Z,99371.59
2022-09-02T06:12:57.969Z,99370.47
2022-09-02T06:15:31.235Z,99374.41
2022-09-02T06:18:02.516Z,99369.16
2022-09-02T06:20:33.164Z,99372.28
2022-09-02T06:23:04.281Z,99367.16
2022-09-02T06:25:33.897Z,99377.50
2022-09-02T06:28:07.396Z,99374.69
2022-09-02T06:30:42.433Z,99372.47
2022-09-02T06:33:13.229Z,99371.53
2022-09-02T06:35:47.108Z,99372.56
2022-09-02T06:38:20.605Z,99372.97
2022-09-02T06:40:53.705Z,99373.66
2022-09-02T06:43:44.981Z,99371.41
2022-09-02T06:46:29.239Z,99369.94
2022-09-02T06:49:00.559Z,99365.00
2022-09-02T06:51:33.435Z,99367.88
2022-09-02T06:54:06.374Z,99373.72
2022-09-02T06:56:39.200Z,99364.41
2022-09-02T06:59:11.657Z,99367.28
2022-09-02T07:01:45.482Z,99363.94
2022-09-02T07:04:36.312Z,99366.22
2022-09-02T07:07:09.432Z,99373.38
2022-09-02T07:09:44.337Z,99365.72
2022-09-02T07:12:17.534Z,99364.22
2022-09-02T07:14:54.650Z,99372.72
2022-09-02T07:17:29.253Z,99363.13
2022-09-02T07:20:04.973Z,99364.34
2022-09-02T07:22:40.188Z,99373.63
2022-09-02T07:25:12.865Z,99368.88
2022-09-02T07:27:41.954Z,99370.66
2022-09-02T07:30:14.633Z,99364.84
2022-09-02T07:32:46.071Z,99360.63
2022-09-02T07:35:16.519Z,99362.88
2022-09-02T07:37:46.840Z,99370.00
2022-09-02T07:40:15.946Z,99371.19
2022-09-02T07:42:45.705Z,99367.78
2022-09-02T07:45:16.048Z,99365.19
2022-09-02T07:47:47.013Z,99371.22
2022-09-02T07:50:20.401Z,99373.28
2022-09-02T07:52:55.609Z,99371.75
2022-09-02T07:55:25.912Z,99368.38
2022-09-02T07:57:56.100Z,99364.91
2022-09-02T08:00:28.549Z,99367.75
2022-09-02T08:03:04.119Z,99366.47
2022-09-02T08:05:39.390Z,99358.69
2022-09-02T08:08:09.697Z,99364.66
2022-09-02T08:10:39.731Z,99364.19
2022-09-02T08:13:08.799Z,99363.75
2022-09-02T08:15:40.127Z,99359.97
2022-09-02T08:18:19.134Z,99356.25
2022-09-02T08:20:52.067Z,99359.56
2022-09-02T08:23:36.141Z,99356.06
2022-09-02T08:26:06.686Z,99350.94
2022-09-02T08:28:36.088Z,99358.56
2022-09-02T08:31:08.982Z,99360.19
2022-09-02T08:33:38.372Z,99364.78
2022-09-02T08:36:11.217Z,99357.50
2022-09-02T08:38:40.198Z,99359.09
2022-09-02T08:41:22.174Z,99356.94
2022-09-02T08:43:53.925Z,99364.53
2022-09-02T08:46:27.139Z,99355.84
2022-09-02T08:49:00.729Z,99356.13
2022-09-02T08:51:37.433Z,99349.84
2022-09-02T08:54:12.155Z,99349.31
2022-09-02T08:56:42.252Z,99348.94
2022-09-02T08:59:14.356Z,99345.41
2022-09-02T09:01:54.813Z,99343.47
2022-09-02T09:04:44.966Z,99345.91
2022-09-02T09:07:30.918Z,99336.09
2022-09-02T09:10:15.200Z,99328.44
2022-09-02T09:13:05.678Z,99330.25
2022-09-02T09:15:45.764Z,99326.66
2022-09-02T09:18:22.067Z,99316.84
2022-09-02T09:20:50.777Z,99315.44
2022-09-02T09:23:34.684Z,99325.00
2022-09-02T09:26:11.173Z,99333.59
2022-09-02T09:28:42.519Z,99323.53
2022-09-02T09:31:19.438Z,99324.84
2022-09-02T09:34:01.290Z,99320.97
2022-09-02T09:36:51.391Z,99317.22
2022-09-02T09:39:24.596Z,99315.06
2022-09-02T09:41:55.735Z,99322.84
2022-09-02T09:44:46.367Z,99323.59
2022-09-02T09:47:22.930Z,99335.22
2022-09-02T09:49:55.879Z,99330.41
2022-09-02T09:52:30.359Z,99323.69
2022-09-02T09:55:24.746Z,99317.69
2022-09-02T09:57:54.904Z,99324.56
2022-09-02T10:00:32.184Z,99325.13
2022-09-02T10:03:04.739Z,99315.84
2022-09-02T10:05:39.018Z,99316.34
2022-09-02T10:08:22.731Z,99306.53
2022-09-02T10:11:01.511Z,99303.28
2022-09-02T10:13:33.481Z,99303.97
2022-09-02T10:16:31.071Z,99296.69
2022-09-02T10:19:12.431Z,99296.06
2022-09-02T10:22:11.627Z,99297.22
2022-09-02T10:25:07.891Z,99290.91
2022-09-02T10:27:50.961Z,99297.22
2022-09-02T10:30:23.232Z,99294.16
2022-09-02T10:33:20.844Z,99291.50
2022-09-02T10:36:00.703Z,99292.94
2022-09-02T10:38:45.300Z,99292.38
2022-09-02T10:41:49.211Z,99289.22
2022-09-02T10:44:34.112Z,99284.91
2022-09-02T10:47:09.767Z,99280.53
2022-09-02T10:50:05.880Z,99290.31
2022-09-02T10:52:59.595Z,99285.38
2022-09-02T10:55:41.915Z,99289.63
2022-09-02T10:58:21.390Z,99284.72
2022-09-02T11:00:57.081Z,99282.56
2022-09-02T11:03:35.284Z,99276.34
2022-09-02T11:06:13.278Z,99272.28
2022-09-02T11:08:48.610Z,99275.47
2022-09-02T11:11:26.402Z,99281.19
2022-09-02T11:14:08.649Z,99270.03
2022-09-02T11:16:46.507Z,99274.38
2022-09-02T11:19:22.976Z,99273.78
2022-09-02T11:22:04.719Z,99266.16
2022-09-02T11:24:46.613Z,99269.16
2022-09-02T11:27:43.291Z,99270.09
2022-09-02T11:30:18.295Z,99265.28
2022-09-02T11:32:56.048Z,99268.56
2022-09-02T11:35:28.048Z,99267.72
2022-09-02T11:38:04.590Z,99267.16
2022-09-02T11:40:40.894Z,99274.81
2022-09-02T11:43:37.147Z,99256.50
2022-09-02T11:46:40.764Z,99264.59
2022-09-02T11:49:34.772Z,99258.22
2022-09-02T11:52:26.484Z,99260.59
2022-09-02T11:55:09.424Z,99260.19
2022-09-02T11:57:41.539Z,99263.22
2022-09-02T12:00:30.793Z,99263.81
2022-09-02T12:03:38.244Z,99258.25
2022-09-02T12:06:14.953Z,99258.16
2022-09-02T12:09:04.957Z,99243.06
2022-09-02T12:11:55.186Z,99250.31
2022-09-02T12:15:11.608Z,99243.31
2022-09-02T12:18:13.992Z,99243.34
2022-09-02T12:21:16.541Z,99241.00
2022-09-02T12:24:22.350Z,99234.91
2022-09-02T12:27:36.299Z,99225.75
2022-09-02T12:30:09.597Z,99217.72
2022-09-02T12:33:14.676Z,99222.84
2022-09-02T12:36:00.534Z,99225.47
2022-09-02T12:38:38.878Z,99223.66
2022-09-02T12:41:40.118Z,99208.03
2022-09-02T12:44:31.546Z,99220.16
2022-09-02T12:47:09.993Z,99214.03
2022-09-02T12:50:01.897Z,99206.59
2022-09-02T12:52:48.951Z,99199.97
2022-09-02T12:55:27.114Z,99200.88
2022-09-02T12:58:11.904Z,99189.63
2022-09-02T13:01:02.298Z,99200.88
2022-09-02T13:03:58.296Z,99193.63
2022-09-02T13:06:48.009Z,99192.19
2022-09-02T13:10:11.139Z,99189.06
2022-09-02T13:13:16.332Z,99195.06
2022-09-02T13:16:16.959Z,99189.50
2022-09-02T13:19:41.386Z,99191.56
2022-09-02T13:22:47.167Z,99191.13
2022-09-02T13:26:01.588Z,99186.63
2022-09-02T13:29:17.841Z,99186.69
2022-09-02T13:32:03.010Z,99180.06
2022-09-02T13:34:33.242Z,99180.59
2022-09-02T13:37:02.078Z,99185.00
2022-09-02T13:39:32.360Z,99184.09
2022-09-02T13:42:01.282Z,99173.28
2022-09-02T13:44:30.731Z,99179.81
2022-09-02T13:47:15.965Z,99175.47
2022-09-02T13:49:49.695Z,99174.38
2022-09-02T13:53:01.013Z,99172.97
2022-09-02T13:55:18.341Z,99166.72
2022-09-02T13:57:54.311Z,99163.50
2022-09-02T14:00:34.271Z,99164.31
2022-09-02T14:03:07.769Z,99159.78
2022-09-02T14:05:45.350Z,99153.63
2022-09-02T14:08:23.375Z,99158.19
2022-09-02T14:10:55.152Z,99164.34
2022-09-02T14:13:25.498Z,99154.03
2022-09-02T14:15:55.738Z,99154.66
2022-09-02T14:18:26.202Z,99154.72
2022-09-02T14:21:01.864Z,99148.91
2022-09-02T14:23:34.747Z,99151.63
2022-09-02T14:26:07.125Z,99148.00
2022-09-02T14:28:37.485Z,99149.97
2022-09-02T14:31:09.752Z,99145.75
2022-09-02T14:33:45.367Z,99153.09
2022-09-02T14:36:35.139Z,99149.28
2022-09-02T14:39:17.094Z,99150.91
2022-09-02T14:41:51.437Z,99150.38
2022-09-02T14:44:26.970Z,99152.25
2022-09-02T14:47:00.866Z,99145.78
2022-09-02T14:49:34.858Z,99148.59
2022-09-02T14:52:17.304Z,99147.06
2022-09-02T14:54:49.884Z,99152.38
2022-09-02T14:57:28.701Z,99148.94
2022-09-02T15:00:07.140Z,99145.28
2022-09-02T15:02:38.609Z,99142.56
2022-09-02T15:05:11.022Z,99148.25
2022-09-02T15:07:40.416Z,99138.44
2022-09-02T15:10:11.443Z,99141.94
2022-09-02T15:12:49.366Z,99136.44
2022-09-02T15:15:18.821Z,99137.31
2022-09-02T15:17:47.829Z,99137.00
2022-09-02T15:20:16.793Z,99134.75
2022-09-02T15:22:45.910Z,99136.06
2022-09-02T15:25:15.870Z,99135.25
2022-09-02T15:27:46.671Z,99140.09
2022-09-02T15:30:16.200Z,99135.47
2022-09-02T15:32:45.552Z,99135.63
2022-09-02T15:35:14.896Z,99130.84
2022-09-02T15:37:44.586Z,99129.19
2022-09-02T15:40:13.664Z,99132.53
2022-09-02T15:42:43.044Z,99135.31
2022-09-02T15:45:13.971Z,99134.03
2022-09-02T15:47:43.687Z,99125.03
2022-09-02T15:50:14.341Z,99131.06
2022-09-02T15:52:53.801Z,99128.63
2022-09-02T15:55:29.316Z,99127.03
2022-09-02T15:57:58.520Z,99128.34
2022-09-02T16:00:32.156Z,99125.84
2022-09-02T16:03:01.775Z,99130.47
2022-09-02T16:05:32.551Z,99123.41
2022-09-02T16:08:01.722Z,99120.41
2022-09-02T16:10:31.844Z,99121.66
2022-09-02T16:13:03.811Z,99116.28
2022-09-02T16:15:40.797Z,99114.88
2022-09-02T16:18:09.574Z,99117.59
2022-09-02T16:20:39.419Z,99111.97
2022-09-02T16:23:08.189Z,99114.69
2022-09-02T16:25:37.271Z,99122.91
2022-09-02T16:28:06.560Z,99115.84
2022-09-02T16:30:35.405Z,99108.81
2022-09-02T16:33:06.637Z,99115.91
2022-09-02T16:35:35.779Z,99100.19
2022-09-02T16:38:04.912Z,99101.28
2022-09-02T16:40:33.778Z,99105.41
2022-09-02T16:43:02.571Z,99099.25
2022-09-02T16:45:32.435Z,99096.59
2022-09-02T16:48:01.798Z,99093.13
2022-09-02T16:50:32.084Z,99095.63
2022-09-02T16:53:01.079Z,99098.13
2022-09-02T16:55:30.933Z,99100.69
2022-09-02T16:58:07.317Z,99098.56
2022-09-02T17:00:37.205Z,99089.66
2022-09-02T17:03:06.181Z,99087.09
2022-09-02T17:05:36.975Z,99080.09
2022-09-02T17:08:06.803Z,99087.50
2022-09-02T17:10:36.538Z,99085.34
2022-09-02T17:13:05.220Z,99086.00
2022-09-02T17:15:34.462Z,99080.09
2022-09-02T17:18:05.226Z,99087.72
2022-09-02T17:20:35.716Z,99086.16
2022-09-02T17:23:05.104Z,99090.59
2022-09-02T17:25:33.966Z,99093.91
2022-09-02T17:28:02.934Z,99087.47
2022-09-02T17:30:31.961Z,99096.19
2022-09-02T17:33:01.293Z,99094.38
2022-09-02T17:35:30.277Z,99091.41
2022-09-02T17:38:01.070Z,99093.84
2022-09-02T17:40:48.016Z,99088.19
2022-09-02T17:43:19.212Z,99095.28
2022-09-02T17:45:48.081Z,99098.31
2022-09-02T17:48:37.011Z,99101.03
2022-09-02T17:51:06.213Z,99095.94
2022-09-02T17:53:37.955Z,99098.97
2022-09-02T17:56:48.861Z,99097.66
2022-09-02T17:59:28.483Z,99104.44
2022-09-02T18:02:44.929Z,99097.75
2022-09-02T18:05:28.970Z,99106.22
2022-09-02T18:08:08.739Z,99109.22
2022-09-02T18:10:41.540Z,99112.78
2022-09-02T18:13:15.897Z,99110.06
2022-09-02T18:16:00.075Z,99116.91
2022-09-02T18:18:28.943Z,99115.88
2022-09-02T18:21:10.737Z,99119.09
2022-09-02T18:24:02.264Z,99121.03
2022-09-02T18:26:55.481Z,99118.63
2022-09-02T18:30:00.338Z,99125.69
2022-09-02T18:33:11.485Z,99128.91
2022-09-02T18:35:55.634Z,99125.13
2022-09-02T18:38:38.894Z,99128.94
2022-09-02T18:41:26.902Z,99130.00
2022-09-02T18:44:19.359Z,99129.50
2022-09-02T18:46:55.418Z,99132.75
2022-09-02T18:49:30.639Z,99128.44
2022-09-02T18:52:04.790Z,99132.22
2022-09-02T18:54:46.770Z,99136.56
2022-09-02T18:57:16.708Z,99135.47
2022-09-02T19:00:10.866Z,99132.75
2022-09-02T19:02:56.834Z,99138.22
2022-09-02T19:05:36.400Z,99128.50
2022-09-02T19:08:40.960Z,99132.25
2022-09-02T19:11:15.430Z,99129.00
2022-09-02T19:14:32.365Z,99130.09
2022-09-02T19:17:15.082Z,99136.59
2022-09-02T19:19:51.445Z,99140.94
2022-09-02T19:22:28.952Z,99141.19
2022-09-02T19:25:21.894Z,99144.97
2022-09-02T19:28:13.726Z,99135.53
2022-09-02T19:31:30.192Z,99145.25
2022-09-02T19:34:18.068Z,99142.56
2022-09-02T19:37:00.420Z,99142.56
2022-09-02T19:39:39.134Z,99139.31
2022-09-02T19:42:29.094Z,99135.81
2022-09-02T19:45:14.164Z,99132.28
2022-09-02T19:48:23.923Z,99140.94
2022-09-02T19:50:57.400Z,99138.00
2022-09-02T19:53:50.560Z,99138.81
2022-09-02T19:56:25.390Z,99141.50
2022-09-02T19:59:13.182Z,99135.28
2022-09-02T20:01:53.345Z,99138.81
2022-09-02T20:04:30.568Z,99145.00
2022-09-02T20:07:27.426Z,99140.16
2022-09-02T20:10:15.503Z,99143.69
2022-09-02T20:12:51.042Z,99149.09
2022-09-02T20:15:52.287Z,99142.81
2022-09-02T20:18:34.969Z,99143.91
2022-09-02T20:21:31.818Z,99143.09
2022-09-02T20:24:43.314Z,99155.28
2022-09-02T20:27:55.112Z,99152.28
2022-09-02T20:31:03.419Z,99151.22
2022-09-02T20:33:57.401Z,99149.59
2022-09-02T20:37:22.101Z,99151.47
2022-09-02T20:40:52.328Z,99154.97
2022-09-02T20:44:24.199Z,99154.13
2022-09-02T20:47:56.656Z,99163.03
2022-09-02T20:50:50.866Z,99161.97
2022-09-02T20:54:09.630Z,99157.88
2022-09-02T20:57:40.873Z,99156.25
2022-09-02T21:00:23.562Z,99167.81
2022-09-02T21:03:21.876Z,99163.19
2022-09-02T21:06:21.794Z,99163.44
2022-09-02T21:09:06.866Z,99167.78
2022-09-02T21:12:03.098Z,99163.97
2022-09-02T21:15:05.884Z,99171.72
2022-09-02T21:17:52.594Z,99171.88
2022-09-02T21:20:38.687Z,99174.03
2022-09-02T21:23:26.422Z,99170.50
2022-09-02T21:26:08.009Z,99170.47
2022-09-02T21:29:07.212Z,99168.00
2022-09-02T21:31:51.417Z,99164.19
2022-09-02T21:34:30.812Z,99175.44
2022-09-02T21:37:05.949Z,99174.34
2022-09-02T21:39:49.215Z,99179.16
2022-09-02T21:42:40.382Z,99178.78
2022-09-02T21:45:27.601Z,99182.31
2022-09-02T21:48:33.675Z,99186.84
2022-09-02T21:51:22.422Z,99184.34
2022-09-02T21:54:26.105Z,99186.03
2022-09-02T21:57:31.616Z,99182.19
2022-09-02T22:00:17.837Z,99184.31
2022-09-02T22:03:04.356Z,99177.03
2022-09-02T22:06:00.895Z,99186.25
2022-09-02T22:08:44.706Z,99182.94
2022-09-02T22:11:26.662Z,99182.63
2022-09-02T22:14:03.482Z,99181.06
2022-09-02T22:16:51.122Z,99184.28
2022-09-02T22:19:24.012Z,99179.44
2022-09-02T22:22:02.777Z,99168.66
2022-09-02T22:24:34.474Z,99165.91
2022-09-02T22:27:13.009Z,99163.16
2022-09-02T22:29:50.808Z,99161.59
2022-09-02T22:32:25.325Z,99160.22
2022-09-02T22:35:09.716Z,99163.63
2022-09-02T22:37:53.365Z,99153.91
2022-09-02T22:40:27.354Z,99155.84
2022-09-02T22:43:06.703Z,99156.41
2022-09-02T22:46:01.606Z,99159.28
2022-09-02T22:48:55.744Z,99154.34
2022-09-02T22:51:51.312Z,99158.69
2022-09-02T22:54:21.856Z,99164.09
2022-09-02T22:57:02.831Z,99157.09
2022-09-02T22:59:48.847Z,99157.03
2022-09-02T23:02:28.468Z,99150.34
2022-09-02T23:05:45.602Z,99142.47
2022-09-02T23:08:17.626Z,99143.84
2022-09-02T23:10:57.189Z,99137.63
2022-09-02T23:13:48.655Z,99147.81
2022-09-02T23:16:29.963Z,99139.78
2022-09-02T23:19:14.445Z,99146.03
2022-09-02T23:21:55.700Z,99147.72
2022-09-02T23:24:36.233Z,99143.72
2022-09-02T23:27:21.299Z,99143.44
2022-09-02T23:29:54.957Z,99139.84
2022-09-02T23:33:03.752Z,99133.38
2022-09-02T23:35:46.180Z,99137.63
2022-09-02T23:38:43.198Z,99136.06
2022-09-02T23:41:13.806Z,99140.88
2022-09-02T23:43:45.890Z,99137.63
2022-09-02T23:46:34.595Z,99134.44
2022-09-02T23:49:19.170Z,99132.84
2022-09-02T23:51:58.521Z,99135.53
2022-09-02T23:54:50.484Z,99131.22
2022-09-02T23:57:46.585Z,99127.34
